Time;durP1;ratioP1;P1;durP2;ratioP2;P2;SDS_P1;SDS_P2;PMS_P1;PMS_P2;Temp;Humidity;BMP_temperature;BMP_pressure;BME280_temperature;BME280_humidity;BME280_pressure;Samples;Min_cycle;Max_cycle;Signal;HPM_P1;HPM_P2
2022/08/06 00:00:29;;;;;;;0.70;0.70;;;;;;;;;;5043630;28;20289;-84
2022/08/06 00:02:56;;;;;;;1.88;1.00;;;;;;;;;;5045829;28;20669;-83
2022/08/06 00:05:25;;;;;;;0.55;0.55;;;;;;;;;;5045957;28;20278;-84
2022/08/06 00:07:55;;;;;;;1.85;1.00;;;;;;;;;;5044439;28;20701;-84
2022/08/06 00:10:22;;;;;;;1.00;1.00;;;;;;;;;;5042490;28;20198;-84
2022/08/06 00:12:50;;;;;;;0.93;0.93;;;;;;;;;;5040794;28;20289;-84
2022/08/06 00:15:19;;;;;;;1.70;0.90;;;;;;;;;;5040261;28;20263;-85
2022/08/06 00:17:47;;;;;;;1.45;1.35;;;;;;;;;;5041226;28;20293;-84
2022/08/06 00:20:16;;;;;;;0.90;0.80;;;;;;;;;;5039830;28;20241;-85
2022/08/06 00:22:44;;;;;;;0.85;0.85;;;;;;;;;;5047148;28;20226;-84
2022/08/06 00:25:11;;;;;;;1.80;0.90;;;;;;;;;;5046010;28;20222;-84
2022/08/06 00:27:39;;;;;;;1.83;1.10;;;;;;;;;;5042418;28;20226;-84
2022/08/06 00:30:09;;;;;;;0.90;0.90;;;;;;;;;;5044440;28;20284;-84
2022/08/06 00:32:38;;;;;;;1.23;0.90;;;;;;;;;;5044825;28;20218;-84
2022/08/06 00:35:06;;;;;;;1.30;1.00;;;;;;;;;;5046166;28;20256;-85
2022/08/06 00:37:34;;;;;;;0.93;0.85;;;;;;;;;;5042741;28;20222;-84
2022/08/06 00:40:01;;;;;;;1.52;0.90;;;;;;;;;;5039027;28;20293;-85
2022/08/06 00:42:29;;;;;;;0.80;0.80;;;;;;;;;;5046272;28;20209;-84
2022/08/06 00:44:57;;;;;;;1.10;1.00;;;;;;;;;;5041842;28;20238;-84
2022/08/06 00:47:24;;;;;;;0.90;0.90;;;;;;;;;;5043500;28;20309;-84
2022/08/06 00:49:53;;;;;;;0.80;0.80;;;;;;;;;;5044477;28;20251;-84
2022/08/06 00:52:21;;;;;;;0.70;0.70;;;;;;;;;;5039808;28;20225;-84
2022/08/06 00:54:48;;;;;;;1.42;0.95;;;;;;;;;;5048529;28;20293;-84
2022/08/06 00:57:16;;;;;;;1.38;0.80;;;;;;;;;;5042653;28;20309;-84
2022/08/06 00:59:43;;;;;;;0.90;0.90;;;;;;;;;;5047952;28;20194;-84
2022/08/06 01:02:11;;;;;;;0.75;0.75;;;;;;;;;;5042052;28;20365;-84
2022/08/06 01:04:39;;;;;;;4.25;1.00;;;;;;;;;;5056288;28;20665;-84
2022/08/06 01:07:08;;;;;;;0.90;0.90;;;;;;;;;;5054172;28;20320;-84
2022/08/06 01:09:35;;;;;;;0.98;0.90;;;;;;;;;;5042235;28;20230;-84
2022/08/06 01:12:03;;;;;;;0.80;0.80;;;;;;;;;;5037756;28;20281;-84
2022/08/06 01:14:31;;;;;;;0.95;0.95;;;;;;;;;;5043002;28;20905;-84
2022/08/06 01:17:04;;;;;;;1.08;0.95;;;;;;;;;;5036016;28;20318;-84
2022/08/06 01:19:49;;;;;;;1.00;0.75;;;;;;;;;;5047749;28;20281;-84
2022/08/06 01:22:39;;;;;;;0.80;0.80;;;;;;;;;;5045368;28;20202;-85
2022/08/06 01:25:29;;;;;;;0.85;0.85;;;;;;;;;;5043856;28;20330;-84
2022/08/06 01:28:01;;;;;;;1.35;0.90;;;;;;;;;;5044706;28;20293;-84
2022/08/06 01:30:33;;;;;;;1.25;0.88;;;;;;;;;;5043055;28;20702;-84
2022/08/06 01:33:05;;;;;;;0.88;0.88;;;;;;;;;;5043753;28;20281;-84
2022/08/06 01:35:38;;;;;;;1.65;1.05;;;;;;;;;;5048540;28;20651;-84
2022/08/06 01:38:09;;;;;;;1.67;1.00;;;;;;;;;;5043564;28;20278;-85
2022/08/06 01:40:39;;;;;;;0.85;0.82;;;;;;;;;;5044226;28;20217;-84
2022/08/06 01:43:10;;;;;;;2.90;0.93;;;;;;;;;;5042899;28;20781;-83
2022/08/06 01:45:40;;;;;;;0.93;0.93;;;;;;;;;;5043148;28;20301;-85
2022/08/06 01:48:11;;;;;;;0.70;0.70;;;;;;;;;;5052024;28;20290;-84
2022/08/06 01:50:47;;;;;;;2.72;1.10;;;;;;;;;;5045733;28;20229;-84
2022/08/06 01:53:20;;;;;;;1.73;1.00;;;;;;;;;;5035093;28;20293;-82
2022/08/06 01:55:52;;;;;;;2.10;0.90;;;;;;;;;;5042332;28;20246;-84
2022/08/06 01:58:26;;;;;;;0.90;0.90;;;;;;;;;;5034120;28;20293;-84
2022/08/06 02:00:54;;;;;;;0.77;0.77;;;;;;;;;;5042633;28;20285;-84
2022/08/06 02:03:30;;;;;;;1.30;0.85;;;;;;;;;;5034172;28;20625;-83
2022/08/06 02:05:59;;;;;;;0.77;0.77;;;;;;;;;;5050819;28;20241;-83
2022/08/06 02:08:30;;;;;;;1.00;1.00;;;;;;;;;;5033847;28;20289;-83
2022/08/06 02:10:59;;;;;;;1.70;1.48;;;;;;;;;;5045237;28;20208;-85
2022/08/06 02:13:28;;;;;;;1.02;0.93;;;;;;;;;;5033806;28;20234;-84
2022/08/06 02:15:57;;;;;;;0.80;0.80;;;;;;;;;;5045030;28;20289;-84
2022/08/06 02:18:25;;;;;;;1.08;0.95;;;;;;;;;;5033899;28;20281;-84
2022/08/06 02:20:54;;;;;;;1.10;1.00;;;;;;;;;;5043715;28;20201;-84
2022/08/06 02:23:25;;;;;;;1.85;0.82;;;;;;;;;;5033570;28;20299;-84
2022/08/06 02:25:55;;;;;;;1.17;1.02;;;;;;;;;;5051727;28;20316;-84
2022/08/06 02:28:24;;;;;;;0.70;0.70;;;;;;;;;;5044175;28;20276;-84
2022/08/06 02:30:56;;;;;;;1.05;1.00;;;;;;;;;;5038526;28;20277;-84
2022/08/06 02:33:24;;;;;;;1.70;0.82;;;;;;;;;;5042313;28;20280;-84
2022/08/06 02:35:55;;;;;;;2.65;1.35;;;;;;;;;;5038037;28;20230;-85
2022/08/06 02:38:27;;;;;;;1.77;1.02;;;;;;;;;;5044478;28;20305;-85
2022/08/06 02:40:58;;;;;;;0.82;0.82;;;;;;;;;;5037753;28;20294;-84
2022/08/06 02:43:32;;;;;;;2.78;1.08;;;;;;;;;;5042639;28;20254;-84
2022/08/06 02:46:09;;;;;;;1.13;1.02;;;;;;;;;;5033918;28;20314;-85
2022/08/06 02:48:41;;;;;;;0.80;0.80;;;;;;;;;;5034319;28;20244;-84
2022/08/06 02:51:14;;;;;;;0.90;0.90;;;;;;;;;;5035062;28;20240;-84
2022/08/06 02:53:47;;;;;;;1.08;1.00;;;;;;;;;;5033878;28;20257;-85
2022/08/06 02:56:16;;;;;;;1.02;0.98;;;;;;;;;;5033667;28;20238;-84
2022/08/06 02:58:47;;;;;;;1.10;1.00;;;;;;;;;;5033586;28;20208;-84
2022/08/06 03:01:21;;;;;;;1.95;1.00;;;;;;;;;;5034194;28;20667;-84
2022/08/06 03:03:51;;;;;;;1.25;1.15;;;;;;;;;;5033478;28;20289;-84
2022/08/06 03:06:19;;;;;;;1.35;1.35;;;;;;;;;;5036091;28;20309;-84
2022/08/06 03:08:47;;;;;;;1.27;0.88;;;;;;;;;;5053631;28;20244;-85
2022/08/06 03:11:15;;;;;;;1.70;0.95;;;;;;;;;;5053544;28;20292;-84
2022/08/06 03:13:43;;;;;;;1.70;0.90;;;;;;;;;;5053438;28;20292;-84
2022/08/06 03:16:11;;;;;;;0.73;0.73;;;;;;;;;;5053036;28;20240;-84
2022/08/06 03:18:40;;;;;;;0.80;0.80;;;;;;;;;;5052685;28;20237;-84
2022/08/06 03:21:09;;;;;;;0.70;0.70;;;;;;;;;;5053221;28;20209;-84
2022/08/06 03:23:37;;;;;;;0.80;0.80;;;;;;;;;;5052995;28;20280;-85
2022/08/06 03:26:05;;;;;;;0.80;0.80;;;;;;;;;;5052853;28;20308;-84
2022/08/06 03:28:35;;;;;;;0.73;0.73;;;;;;;;;;5053414;28;20269;-84
2022/08/06 03:31:03;;;;;;;0.80;0.80;;;;;;;;;;5053917;28;20228;-84
2022/08/06 03:33:31;;;;;;;2.20;1.02;;;;;;;;;;5054194;28;20288;-84
2022/08/06 03:36:02;;;;;;;0.93;0.88;;;;;;;;;;5054334;28;20280;-84
2022/08/06 03:38:35;;;;;;;4.38;1.20;;;;;;;;;;5054706;28;20570;-84
2022/08/06 03:41:03;;;;;;;0.70;0.70;;;;;;;;;;5053964;28;20229;-84
2022/08/06 03:43:31;;;;;;;1.30;0.80;;;;;;;;;;5053606;28;20936;-84
2022/08/06 03:46:02;;;;;;;0.82;0.82;;;;;;;;;;5053242;28;20316;-84
2022/08/06 03:48:33;;;;;;;0.73;0.73;;;;;;;;;;5052470;28;20762;-83
2022/08/06 03:51:04;;;;;;;2.47;1.10;;;;;;;;;;5052701;28;20279;-85
2022/08/06 03:53:34;;;;;;;1.02;0.80;;;;;;;;;;5053465;28;20646;-84
2022/08/06 03:56:03;;;;;;;0.80;0.80;;;;;;;;;;5052998;28;20599;-83
2022/08/06 03:58:32;;;;;;;0.80;0.80;;;;;;;;;;5053142;28;20237;-84
2022/08/06 04:01:04;;;;;;;0.73;0.73;;;;;;;;;;5053696;28;20737;-84
2022/08/06 04:03:33;;;;;;;0.77;0.77;;;;;;;;;;5053237;28;20281;-84
2022/08/06 04:06:04;;;;;;;0.65;0.65;;;;;;;;;;5052941;28;20225;-84
2022/08/06 04:08:32;;;;;;;0.80;0.80;;;;;;;;;;5052850;28;20734;-85
2022/08/06 04:11:00;;;;;;;0.68;0.68;;;;;;;;;;5055273;28;20284;-84
2022/08/06 04:13:28;;;;;;;0.98;0.90;;;;;;;;;;5056972;28;20236;-84
2022/08/06 04:15:56;;;;;;;1.38;0.80;;;;;;;;;;5056736;28;20761;-85
2022/08/06 04:18:27;;;;;;;0.98;0.88;;;;;;;;;;5056221;28;20634;-84
2022/08/06 04:20:59;;;;;;;0.60;0.60;;;;;;;;;;5056900;28;20277;-84
2022/08/06 04:23:28;;;;;;;1.23;1.00;;;;;;;;;;5056471;28;20586;-84
2022/08/06 04:25:58;;;;;;;0.85;0.77;;;;;;;;;;5056484;28;20236;-84
2022/08/06 04:28:27;;;;;;;0.90;0.90;;;;;;;;;;5055930;28;20265;-84
2022/08/06 04:30:55;;;;;;;0.93;0.93;;;;;;;;;;5055721;28;20708;-84
2022/08/06 04:33:24;;;;;;;0.90;0.90;;;;;;;;;;5055792;28;20240;-84
2022/08/06 04:35:52;;;;;;;0.70;0.63;;;;;;;;;;5055600;28;20289;-85
2022/08/06 04:38:23;;;;;;;7.47;0.80;;;;;;;;;;5055477;28;20854;-84
2022/08/06 04:40:52;;;;;;;3.60;0.90;;;;;;;;;;5055973;28;20648;-84
2022/08/06 04:43:20;;;;;;;0.88;0.70;;;;;;;;;;5055493;28;20201;-86
2022/08/06 04:45:48;;;;;;;0.70;0.70;;;;;;;;;;5055017;28;20197;-84
2022/08/06 04:48:16;;;;;;;1.65;0.90;;;;;;;;;;5054458;28;20214;-85
2022/08/06 04:50:44;;;;;;;0.75;0.73;;;;;;;;;;5054566;28;20289;-84
2022/08/06 04:53:14;;;;;;;0.93;0.93;;;;;;;;;;5054852;28;20198;-83
2022/08/06 04:55:42;;;;;;;0.63;0.63;;;;;;;;;;5055364;28;20290;-84
2022/08/06 04:58:16;;;;;;;0.93;0.93;;;;;;;;;;5054746;28;20289;-84
2022/08/06 05:00:48;;;;;;;0.80;0.80;;;;;;;;;;5055175;28;20174;-84
2022/08/06 05:03:16;;;;;;;0.82;0.82;;;;;;;;;;5055328;28;20295;-84
2022/08/06 05:05:49;;;;;;;1.00;0.90;;;;;;;;;;5054768;28;20194;-84
2022/08/06 05:08:17;;;;;;;0.88;0.80;;;;;;;;;;5054533;28;20233;-82
2022/08/06 05:10:52;;;;;;;0.90;0.90;;;;;;;;;;5054692;28;20642;-82
2022/08/06 05:13:23;;;;;;;0.77;0.77;;;;;;;;;;5054818;28;20201;-84
2022/08/06 05:15:54;;;;;;;0.80;0.80;;;;;;;;;;5054826;28;20288;-83
2022/08/06 05:18:27;;;;;;;1.25;1.20;;;;;;;;;;5054740;28;20228;-84
2022/08/06 05:20:56;;;;;;;1.75;1.23;;;;;;;;;;5054544;28;20734;-84
2022/08/06 05:23:30;;;;;;;2.03;1.88;;;;;;;;;;5053064;28;20673;-84
2022/08/06 05:25:58;;;;;;;1.35;1.25;;;;;;;;;;5054676;28;20269;-83
2022/08/06 05:28:26;;;;;;;1.38;1.10;;;;;;;;;;5054233;28;20206;-83
2022/08/06 05:30:54;;;;;;;0.98;0.98;;;;;;;;;;5055194;28;20293;-84
2022/08/06 05:33:27;;;;;;;1.25;1.20;;;;;;;;;;5054127;28;20733;-84
2022/08/06 05:35:55;;;;;;;1.48;1.20;;;;;;;;;;5054510;28;20197;-84
2022/08/06 05:38:25;;;;;;;1.65;1.23;;;;;;;;;;5054989;28;20280;-85
2022/08/06 05:40:55;;;;;;;0.73;0.73;;;;;;;;;;5056759;28;20263;-80
2022/08/06 05:43:22;;;;;;;0.95;0.80;;;;;;;;;;5058521;28;20255;-80
2022/08/06 05:45:56;;;;;;;0.80;0.80;;;;;;;;;;5059269;28;20261;-80
2022/08/06 05:48:24;;;;;;;0.95;0.90;;;;;;;;;;5058243;28;20308;-80
2022/08/06 05:50:55;;;;;;;1.02;0.80;;;;;;;;;;5059832;28;20201;-81
2022/08/06 05:53:26;;;;;;;1.05;1.00;;;;;;;;;;5062705;28;20225;-81
2022/08/06 05:55:57;;;;;;;1.63;1.23;;;;;;;;;;5060403;28;20201;-81
2022/08/06 05:58:29;;;;;;;1.20;1.10;;;;;;;;;;5061339;28;20232;-80
2022/08/06 06:01:01;;;;;;;0.90;0.90;;;;;;;;;;5063140;28;20323;-80
2022/08/06 06:03:29;;;;;;;0.95;0.95;;;;;;;;;;5062302;28;20198;-80
2022/08/06 06:05:59;;;;;;;1.88;1.08;;;;;;;;;;5063030;28;20214;-80
2022/08/06 06:08:27;;;;;;;1.42;1.02;;;;;;;;;;5041072;28;20333;-80
2022/08/06 06:10:55;;;;;;;2.47;1.00;;;;;;;;;;5042677;28;20293;-81
2022/08/06 06:13:24;;;;;;;1.05;0.98;;;;;;;;;;5042240;28;20242;-81
2022/08/06 06:16:02;;;;;;;0.90;0.90;;;;;;;;;;5040413;28;20214;-81
2022/08/06 06:18:51;;;;;;;1.23;1.10;;;;;;;;;;5039231;28;20288;-81
2022/08/06 06:21:32;;;;;;;1.13;1.00;;;;;;;;;;5041808;28;20198;-81
2022/08/06 06:24:10;;;;;;;0.85;0.85;;;;;;;;;;5041158;28;20225;-82
2022/08/06 06:26:46;;;;;;;0.93;0.90;;;;;;;;;;5042049;28;20294;-82
2022/08/06 06:29:22;;;;;;;2.65;0.90;;;;;;;;;;5040567;28;20266;-82
2022/08/06 06:32:02;;;;;;;1.05;0.88;;;;;;;;;;5046187;28;20225;-81
2022/08/06 06:34:41;;;;;;;1.20;1.10;;;;;;;;;;5042912;28;20210;-81
2022/08/06 06:37:27;;;;;;;3.58;1.30;;;;;;;;;;5052426;28;20225;-81
2022/08/06 06:40:07;;;;;;;1.20;1.10;;;;;;;;;;5065220;28;20207;-81
2022/08/06 06:42:39;;;;;;;0.90;0.90;;;;;;;;;;5068261;28;20226;-81
2022/08/06 06:45:13;;;;;;;0.85;0.85;;;;;;;;;;5072670;28;20213;-81
2022/08/06 06:47:49;;;;;;;0.80;0.80;;;;;;;;;;5069554;28;20247;-81
2022/08/06 06:50:25;;;;;;;1.02;0.93;;;;;;;;;;5070014;28;20565;-81
2022/08/06 06:52:55;;;;;;;0.70;0.70;;;;;;;;;;5073833;28;20201;-81
2022/08/06 06:55:26;;;;;;;2.03;0.95;;;;;;;;;;5072514;28;20213;-81
2022/08/06 06:57:59;;;;;;;0.93;0.68;;;;;;;;;;5066526;28;20224;-82
2022/08/06 07:00:27;;;;;;;0.70;0.70;;;;;;;;;;5066501;28;20637;-81
2022/08/06 07:02:59;;;;;;;1.15;1.15;;;;;;;;;;5061595;28;20233;-80
2022/08/06 07:05:27;;;;;;;0.98;0.88;;;;;;;;;;5063852;28;20210;-84
2022/08/06 07:07:55;;;;;;;2.17;0.75;;;;;;;;;;5064679;28;20225;-83
2022/08/06 07:10:24;;;;;;;0.60;0.60;;;;;;;;;;5065647;28;20225;-82
2022/08/06 07:12:51;;;;;;;0.90;0.90;;;;;;;;;;5066137;28;20213;-81
2022/08/06 07:15:22;;;;;;;0.77;0.77;;;;;;;;;;5064657;28;20236;-82
2022/08/06 07:17:50;;;;;;;1.70;0.77;;;;;;;;;;5062642;28;20313;-80
2022/08/06 07:20:24;;;;;;;1.42;0.80;;;;;;;;;;5063372;28;20216;-80
2022/08/06 07:22:52;;;;;;;0.70;0.70;;;;;;;;;;5063000;28;20202;-80
2022/08/06 07:25:20;;;;;;;0.60;0.60;;;;;;;;;;5061558;28;20237;-82
2022/08/06 07:27:51;;;;;;;1.80;0.98;;;;;;;;;;5062169;28;20632;-80
2022/08/06 07:30:21;;;;;;;1.42;1.00;;;;;;;;;;5061999;28;20226;-80
2022/08/06 07:32:50;;;;;;;2.05;1.73;;;;;;;;;;5051269;28;20197;-80
2022/08/06 07:35:20;;;;;;;0.82;0.70;;;;;;;;;;5055048;28;20584;-79
2022/08/06 07:37:52;;;;;;;0.60;0.60;;;;;;;;;;5052019;28;20222;-80
2022/08/06 07:40:25;;;;;;;1.20;0.65;;;;;;;;;;5057093;28;20204;-80
2022/08/06 07:42:59;;;;;;;0.70;0.70;;;;;;;;;;5051953;28;20229;-78
2022/08/06 07:45:30;;;;;;;0.60;0.60;;;;;;;;;;5058743;28;20193;-80
2022/08/06 07:47:58;;;;;;;1.70;1.23;;;;;;;;;;5058381;28;20236;-81
2022/08/06 07:50:28;;;;;;;0.70;0.70;;;;;;;;;;5057770;28;20277;-79
2022/08/06 07:52:57;;;;;;;0.90;0.90;;;;;;;;;;5056132;28;20226;-79
2022/08/06 07:55:26;;;;;;;0.85;0.85;;;;;;;;;;5054008;28;20209;-80
2022/08/06 07:57:55;;;;;;;0.80;0.80;;;;;;;;;;5061553;28;21379;-79
2022/08/06 08:00:23;;;;;;;0.75;0.75;;;;;;;;;;5056378;28;20262;-80
2022/08/06 08:08:19;;;;;;;1.10;0.60;;;;;;;;;;5059226;28;20224;-79
2022/08/06 08:10:46;;;;;;;0.95;0.80;;;;;;;;;;5051362;28;20241;-80
2022/08/06 08:13:16;;;;;;;0.70;0.70;;;;;;;;;;5051750;28;20230;-80
2022/08/06 08:15:43;;;;;;;0.63;0.63;;;;;;;;;;5055842;28;20309;-79
2022/08/06 08:18:11;;;;;;;0.60;0.60;;;;;;;;;;5051521;28;20198;-79
2022/08/06 08:20:42;;;;;;;0.40;0.40;;;;;;;;;;5054063;28;20206;-80
2022/08/06 08:23:12;;;;;;;0.73;0.73;;;;;;;;;;5057674;28;20221;-80
2022/08/06 08:25:41;;;;;;;0.60;0.60;;;;;;;;;;5053396;28;20194;-83
2022/08/06 08:28:09;;;;;;;1.30;0.73;;;;;;;;;;5047717;28;20264;-80
2022/08/06 08:30:39;;;;;;;0.70;0.70;;;;;;;;;;5061367;28;20221;-82
2022/08/06 08:33:06;;;;;;;0.80;0.80;;;;;;;;;;5063651;28;20259;-81
2022/08/06 08:35:34;;;;;;;0.70;0.70;;;;;;;;;;5059081;28;20198;-80
2022/08/06 08:38:03;;;;;;;0.57;0.57;;;;;;;;;;5065099;28;20256;-80
2022/08/06 08:40:31;;;;;;;1.45;0.70;;;;;;;;;;5057046;28;20195;-80
2022/08/06 08:43:00;;;;;;;0.93;0.88;;;;;;;;;;5057079;28;20230;-80
2022/08/06 08:45:28;;;;;;;0.70;0.70;;;;;;;;;;5049771;28;20282;-80
2022/08/06 08:47:58;;;;;;;0.70;0.70;;;;;;;;;;5039500;28;20694;-79
2022/08/06 08:50:29;;;;;;;0.70;0.70;;;;;;;;;;5052267;28;20218;-80
2022/08/06 08:53:03;;;;;;;1.48;0.50;;;;;;;;;;5042964;28;20289;-80
2022/08/06 08:55:31;;;;;;;0.80;0.80;;;;;;;;;;5051039;28;20691;-80
2022/08/06 08:57:59;;;;;;;4.35;0.80;;;;;;;;;;5057710;28;20217;-80
2022/08/06 09:00:26;;;;;;;0.50;0.50;;;;;;;;;;5055922;28;20195;-80
2022/08/06 09:02:54;;;;;;;0.55;0.55;;;;;;;;;;5052374;28;20227;-80
2022/08/06 09:05:22;;;;;;;1.27;0.57;;;;;;;;;;5052641;28;20216;-81
2022/08/06 09:07:51;;;;;;;0.63;0.63;;;;;;;;;;5053789;28;20249;-81
2022/08/06 09:10:20;;;;;;;0.77;0.70;;;;;;;;;;5064552;28;20281;-81
2022/08/06 09:12:47;;;;;;;0.50;0.50;;;;;;;;;;5052998;28;20230;-85
2022/08/06 09:15:17;;;;;;;0.70;0.70;;;;;;;;;;5062433;28;20194;-81
2022/08/06 09:17:46;;;;;;;1.48;0.80;;;;;;;;;;5053952;28;20237;-80
2022/08/06 09:20:15;;;;;;;0.80;0.47;;;;;;;;;;5053497;28;20736;-81
2022/08/06 09:22:44;;;;;;;0.50;0.50;;;;;;;;;;5045602;28;20198;-79
2022/08/06 09:28:09;;;;;;;0.70;0.70;;;;;;;;;;5133007;27;20659;-81
2022/08/06 09:30:37;;;;;;;0.60;0.60;;;;;;;;;;5119312;28;20522;-81
2022/08/06 09:33:12;;;;;;;0.73;0.73;;;;;;;;;;5113986;28;20220;-82
2022/08/06 09:35:41;;;;;;;2.08;0.98;;;;;;;;;;5111768;28;20577;-81
2022/08/06 09:38:10;;;;;;;0.77;0.77;;;;;;;;;;5115215;28;20214;-81
2022/08/06 09:40:38;;;;;;;0.73;0.73;;;;;;;;;;5120211;28;20200;-80
2022/08/06 09:43:06;;;;;;;0.50;0.50;;;;;;;;;;5120277;28;20683;-81
2022/08/06 09:45:34;;;;;;;0.60;0.60;;;;;;;;;;5119925;28;20702;-81
2022/08/06 09:48:04;;;;;;;0.70;0.70;;;;;;;;;;5117452;28;20703;-81
2022/08/06 09:50:43;;;;;;;0.93;0.60;;;;;;;;;;5115713;28;20255;-81
2022/08/06 09:53:12;;;;;;;0.40;0.40;;;;;;;;;;5115581;28;20223;-82
2022/08/06 09:55:40;;;;;;;0.60;0.60;;;;;;;;;;5121659;28;20283;-81
2022/08/06 09:58:09;;;;;;;0.70;0.70;;;;;;;;;;5121126;28;20192;-81
2022/08/06 10:00:38;;;;;;;0.75;0.75;;;;;;;;;;5116465;28;20223;-81
2022/08/06 10:03:08;;;;;;;1.02;0.75;;;;;;;;;;5118311;28;20220;-82
2022/08/06 10:05:35;;;;;;;0.80;0.80;;;;;;;;;;5113942;28;20291;-81
2022/08/06 10:08:09;;;;;;;0.88;0.70;;;;;;;;;;5113349;28;20605;-82
2022/08/06 10:10:45;;;;;;;1.45;1.08;;;;;;;;;;5117652;28;20275;-82
2022/08/06 10:13:20;;;;;;;1.13;0.70;;;;;;;;;;5110939;28;20645;-82
2022/08/06 10:15:49;;;;;;;1.13;0.55;;;;;;;;;;5116560;28;20219;-82
2022/08/06 10:18:39;;;;;;;0.52;0.52;;;;;;;;;;5113810;28;20212;-81
2022/08/06 10:21:08;;;;;;;0.40;0.40;;;;;;;;;;5114340;28;20231;-80
2022/08/06 10:23:39;;;;;;;0.60;0.60;;;;;;;;;;5108766;28;20195;-82
2022/08/06 10:26:10;;;;;;;0.50;0.40;;;;;;;;;;5117288;28;20245;-80
2022/08/06 10:28:41;;;;;;;0.65;0.50;;;;;;;;;;5115491;28;20203;-80
2022/08/06 10:31:11;;;;;;;0.70;0.70;;;;;;;;;;5106775;28;20215;-80
2022/08/06 10:33:44;;;;;;;0.50;0.50;;;;;;;;;;5117804;28;20211;-81
2022/08/06 10:36:15;;;;;;;0.30;0.30;;;;;;;;;;5111868;28;20295;-81
2022/08/06 10:38:48;;;;;;;0.63;0.60;;;;;;;;;;5102968;28;20643;-81
2022/08/06 10:41:16;;;;;;;0.40;0.40;;;;;;;;;;5103581;28;20585;-81
2022/08/06 10:43:45;;;;;;;0.60;0.60;;;;;;;;;;5101967;28;20264;-81
2022/08/06 10:46:15;;;;;;;0.40;0.40;;;;;;;;;;5100070;28;20235;-80
2022/08/06 10:48:44;;;;;;;0.93;0.60;;;;;;;;;;5104234;28;20231;-80
2022/08/06 10:51:13;;;;;;;0.57;0.57;;;;;;;;;;5104385;28;20232;-80
2022/08/06 10:53:44;;;;;;;0.60;0.60;;;;;;;;;;5103385;28;20295;-81
2022/08/06 10:56:14;;;;;;;0.73;0.60;;;;;;;;;;5106196;28;20227;-82
2022/08/06 10:58:45;;;;;;;0.40;0.40;;;;;;;;;;5101829;28;20224;-81
2022/08/06 11:01:20;;;;;;;1.00;0.55;;;;;;;;;;5096323;28;20643;-81
2022/08/06 11:04:03;;;;;;;0.63;0.60;;;;;;;;;;5094109;22;20258;-79
2022/08/06 11:07:10;;;;;;;1.58;0.90;;;;;;;;;;5068989;28;20197;-81
2022/08/06 11:10:00;;;;;;;1.23;0.60;;;;;;;;;;5073421;28;20784;-78
2022/08/06 11:12:44;;;;;;;0.50;0.50;;;;;;;;;;5067150;28;20337;-80
2022/08/06 11:15:13;;;;;;;0.70;0.70;;;;;;;;;;5070422;28;20645;-78
2022/08/06 11:17:45;;;;;;;0.50;0.50;;;;;;;;;;5065325;28;20221;-78
2022/08/06 11:20:42;;;;;;;0.60;0.60;;;;;;;;;;5064979;28;20736;-79
2022/08/06 11:23:31;;;;;;;0.73;0.73;;;;;;;;;;5068864;28;20307;-79
2022/08/06 11:26:00;;;;;;;0.40;0.40;;;;;;;;;;5057230;28;20221;-80
2022/08/06 11:29:00;;;;;;;1.17;0.80;;;;;;;;;;5075759;28;20316;-79
2022/08/06 11:31:39;;;;;;;0.28;0.28;;;;;;;;;;5067270;28;20288;-81
2022/08/06 11:34:13;;;;;;;0.43;0.43;;;;;;;;;;5076355;28;20219;-79
2022/08/06 11:36:56;;;;;;;1.02;0.60;;;;;;;;;;5064455;28;20201;-79
2022/08/06 11:39:26;;;;;;;0.55;0.55;;;;;;;;;;5072663;28;20242;-79
2022/08/06 11:41:57;;;;;;;2.20;0.70;;;;;;;;;;5070884;28;20554;-78
2022/08/06 11:44:28;;;;;;;0.60;0.60;;;;;;;;;;5071168;28;20204;-80
2022/08/06 11:47:19;;;;;;;0.43;0.43;;;;;;;;;;5071442;28;20280;-77
2022/08/06 11:49:50;;;;;;;0.30;0.30;;;;;;;;;;5076942;28;20280;-81
2022/08/06 11:52:41;;;;;;;0.52;0.40;;;;;;;;;;5071331;28;20229;-78
2022/08/06 11:55:12;;;;;;;0.45;0.45;;;;;;;;;;5071869;28;20201;-79
2022/08/06 11:57:40;;;;;;;0.70;0.70;;;;;;;;;;5073983;28;20661;-79
2022/08/06 12:00:20;;;;;;;0.95;0.63;;;;;;;;;;5075134;28;20238;-79
2022/08/06 12:02:57;;;;;;;0.55;0.55;;;;;;;;;;5075570;28;20815;-79
2022/08/06 12:05:39;;;;;;;1.08;0.63;;;;;;;;;;5075867;28;20203;-82
2022/08/06 12:08:24;;;;;;;0.50;0.50;;;;;;;;;;5073508;28;20288;-79
2022/08/06 12:11:24;;;;;;;0.50;0.50;;;;;;;;;;5076610;28;20197;-77
2022/08/06 12:13:53;;;;;;;0.40;0.40;;;;;;;;;;5069253;28;20221;-78
2022/08/06 12:16:38;;;;;;;0.47;0.47;;;;;;;;;;5070728;28;20192;-79
2022/08/06 12:19:14;;;;;;;0.60;0.60;;;;;;;;;;5060374;28;20673;-80
2022/08/06 12:21:43;;;;;;;0.50;0.50;;;;;;;;;;5058929;28;20228;-80
2022/08/06 12:24:12;;;;;;;0.80;0.80;;;;;;;;;;5067868;28;20262;-81
2022/08/06 12:26:41;;;;;;;0.47;0.47;;;;;;;;;;5076601;28;20192;-81
2022/08/06 12:29:09;;;;;;;0.50;0.50;;;;;;;;;;5073430;28;20307;-79
2022/08/06 12:31:39;;;;;;;0.43;0.43;;;;;;;;;;5074405;28;20631;-80
2022/08/06 12:34:09;;;;;;;0.50;0.50;;;;;;;;;;5068344;28;20236;-80
2022/08/06 12:36:37;;;;;;;1.08;0.60;;;;;;;;;;5071352;28;20211;-79
2022/08/06 12:39:08;;;;;;;0.90;0.80;;;;;;;;;;5067495;28;20204;-80
2022/08/06 12:41:43;;;;;;;0.50;0.50;;;;;;;;;;5067019;28;20200;-80
2022/08/06 12:44:12;;;;;;;0.80;0.80;;;;;;;;;;5071616;28;20307;-80
2022/08/06 12:46:40;;;;;;;0.60;0.60;;;;;;;;;;5059965;28;20198;-80
2022/08/06 12:49:09;;;;;;;0.50;0.50;;;;;;;;;;5059995;28;20348;-79
2022/08/06 12:51:37;;;;;;;0.57;0.57;;;;;;;;;;5070988;28;20224;-80
2022/08/06 12:54:08;;;;;;;1.38;0.57;;;;;;;;;;5068597;28;20332;-80
2022/08/06 12:56:40;;;;;;;0.50;0.50;;;;;;;;;;5068196;28;20707;-79
2022/08/06 12:59:11;;;;;;;0.40;0.40;;;;;;;;;;5062951;28;20289;-80
2022/08/06 13:01:39;;;;;;;0.30;0.30;;;;;;;;;;5066365;28;20719;-80
2022/08/06 13:04:10;;;;;;;0.50;0.50;;;;;;;;;;5063028;28;20319;-80
2022/08/06 13:06:39;;;;;;;1.13;1.05;;;;;;;;;;5069698;28;20311;-80
2022/08/06 13:09:07;;;;;;;0.57;0.57;;;;;;;;;;5075069;28;20212;-82
2022/08/06 13:11:35;;;;;;;0.73;0.70;;;;;;;;;;5073914;28;20702;-80
2022/08/06 13:14:12;;;;;;;0.50;0.50;;;;;;;;;;5063872;28;20229;-80
2022/08/06 13:16:42;;;;;;;0.73;0.65;;;;;;;;;;5063087;28;20251;-82
2022/08/06 13:19:14;;;;;;;0.50;0.40;;;;;;;;;;5071404;28;20201;-80
2022/08/06 13:21:43;;;;;;;0.40;0.40;;;;;;;;;;5067072;28;20250;-80
2022/08/06 13:24:12;;;;;;;0.77;0.50;;;;;;;;;;5066053;28;20340;-80
2022/08/06 13:26:52;;;;;;;0.55;0.55;;;;;;;;;;5064331;28;20224;-80
2022/08/06 13:29:22;;;;;;;0.45;0.45;;;;;;;;;;5058278;28;20307;-81
2022/08/06 13:32:01;;;;;;;0.40;0.40;;;;;;;;;;5073000;28;20205;-81
2022/08/06 13:34:30;;;;;;;0.30;0.30;;;;;;;;;;5073408;28;20225;-80
2022/08/06 13:37:00;;;;;;;1.02;0.60;;;;;;;;;;5073806;28;20201;-81
2022/08/06 13:39:30;;;;;;;1.02;0.90;;;;;;;;;;5074940;28;20201;-80
2022/08/06 13:42:08;;;;;;;3.42;0.90;;;;;;;;;;5074425;28;20197;-81
2022/08/06 13:44:38;;;;;;;1.33;0.55;;;;;;;;;;5074567;28;20223;-81
2022/08/06 13:47:06;;;;;;;5.15;1.52;;;;;;;;;;5074033;28;20211;-80
2022/08/06 13:49:36;;;;;;;0.45;0.45;;;;;;;;;;5074336;28;20223;-80
2022/08/06 13:52:04;;;;;;;0.35;0.35;;;;;;;;;;5074126;28;20288;-81
2022/08/06 13:54:32;;;;;;;0.38;0.38;;;;;;;;;;5073687;28;20291;-80
2022/08/06 13:56:59;;;;;;;0.40;0.40;;;;;;;;;;5073320;28;20640;-80
2022/08/06 13:59:30;;;;;;;0.40;0.40;;;;;;;;;;5074766;28;20287;-80
2022/08/06 14:02:00;;;;;;;0.52;0.40;;;;;;;;;;5074705;28;20223;-80
2022/08/06 14:04:29;;;;;;;3.88;0.70;;;;;;;;;;5074339;28;20231;-80
2022/08/06 14:06:59;;;;;;;1.17;0.60;;;;;;;;;;5074099;28;20216;-81
2022/08/06 14:09:30;;;;;;;0.40;0.40;;;;;;;;;;5073782;28;20892;-82
2022/08/06 14:11:59;;;;;;;0.47;0.47;;;;;;;;;;5074909;28;20326;-80
2022/08/06 14:14:29;;;;;;;0.52;0.50;;;;;;;;;;5077958;28;20298;-80
2022/08/06 14:17:00;;;;;;;0.50;0.50;;;;;;;;;;5077557;28;20201;-78
2022/08/06 14:19:28;;;;;;;0.40;0.40;;;;;;;;;;5078184;28;20681;-79
2022/08/06 14:21:57;;;;;;;4.88;1.52;;;;;;;;;;5078098;28;20264;-80
2022/08/06 14:24:25;;;;;;;0.70;0.70;;;;;;;;;;5077928;28;20307;-80
2022/08/06 14:26:52;;;;;;;0.73;0.50;;;;;;;;;;5078984;28;20288;-80
2022/08/06 14:29:20;;;;;;;0.30;0.30;;;;;;;;;;5078802;28;20779;-81
2022/08/06 14:31:47;;;;;;;0.95;0.50;;;;;;;;;;5077755;28;20201;-80
2022/08/06 14:34:15;;;;;;;0.50;0.50;;;;;;;;;;5078239;28;20238;-80
2022/08/06 14:36:42;;;;;;;0.30;0.30;;;;;;;;;;5078932;28;20270;-81
2022/08/06 14:39:12;;;;;;;0.55;0.50;;;;;;;;;;5078561;28;20235;-80
2022/08/06 14:47:10;;;;;;;0.57;0.57;;;;;;;;;;5077374;28;20239;-80
2022/08/06 14:49:38;;;;;;;0.45;0.45;;;;;;;;;;5077361;28;20221;-79
2022/08/06 14:52:06;;;;;;;0.30;0.30;;;;;;;;;;5077801;28;20243;-80
2022/08/06 14:54:36;;;;;;;0.40;0.40;;;;;;;;;;5078226;28;20236;-78
2022/08/06 14:57:06;;;;;;;0.47;0.47;;;;;;;;;;5078472;28;20193;-80
2022/08/06 14:59:34;;;;;;;0.55;0.55;;;;;;;;;;5077794;28;20197;-80
2022/08/06 15:02:02;;;;;;;0.43;0.43;;;;;;;;;;5078703;28;20617;-80
2022/08/06 15:04:30;;;;;;;0.40;0.40;;;;;;;;;;5078209;28;20244;-81
2022/08/06 15:06:58;;;;;;;0.52;0.52;;;;;;;;;;5078288;28;20207;-82
2022/08/06 15:09:26;;;;;;;1.02;1.02;;;;;;;;;;5077600;28;20257;-80
2022/08/06 15:11:55;;;;;;;0.40;0.40;;;;;;;;;;5077029;28;20296;-80
2022/08/06 15:14:23;;;;;;;0.38;0.38;;;;;;;;;;5077436;28;20252;-80
2022/08/06 15:16:50;;;;;;;0.85;0.70;;;;;;;;;;5076872;28;20225;-80
2022/08/06 15:19:18;;;;;;;0.28;0.28;;;;;;;;;;5078186;28;20291;-80